sensor_id;sensor_type;location;lat;lon;timestamp;temperature;humidity
77613;DHT22;66777;52.282;5.960;2023-03-30T00:00:59;12.80;75.10
77613;DHT22;66777;52.282;5.960;2023-03-30T00:03:26;12.80;74.80
77613;DHT22;66777;52.282;5.960;2023-03-30T00:05:54;12.80;75.30
77613;DHT22;66777;52.282;5.960;2023-03-30T00:08:24;12.80;75.30
77613;DHT22;66777;52.282;5.960;2023-03-30T00:10:53;12.80;74.90
77613;DHT22;66777;52.282;5.960;2023-03-30T00:13:25;12.80;75.20
77613;DHT22;66777;52.282;5.960;2023-03-30T00:15:51;12.80;75.10
77613;DHT22;66777;52.282;5.960;2023-03-30T00:18:16;12.80;74.80
77613;DHT22;66777;52.282;5.960;2023-03-30T00:20:43;12.80;74.90
77613;DHT22;66777;52.282;5.960;2023-03-30T00:23:10;13.00;73.40
77613;DHT22;66777;52.282;5.960;2023-03-30T00:25:36;13.00;73.50
77613;DHT22;66777;52.282;5.960;2023-03-30T00:28:02;13.00;73.20
77613;DHT22;66777;52.282;5.960;2023-03-30T00:30:28;13.00;72.80
77613;DHT22;66777;52.282;5.960;2023-03-30T00:32:53;13.00;72.90
77613;DHT22;66777;52.282;5.960;2023-03-30T00:35:20;13.00;72.30
77613;DHT22;66777;52.282;5.960;2023-03-30T00:37:45;12.90;72.60
77613;DHT22;66777;52.282;5.960;2023-03-30T00:40:19;12.80;73.10
77613;DHT22;66777;52.282;5.960;2023-03-30T00:42:45;12.80;73.20
77613;DHT22;66777;52.282;5.960;2023-03-30T00:48:05;12.70;73.50
77613;DHT22;66777;52.282;5.960;2023-03-30T00:50:36;12.80;73.30
77613;DHT22;66777;52.282;5.960;2023-03-30T00:53:08;12.80;73.00
77613;DHT22;66777;52.282;5.960;2023-03-30T00:55:36;12.90;72.50
77613;DHT22;66777;52.282;5.960;2023-03-30T00:58:03;12.90;72.30
77613;DHT22;66777;52.282;5.960;2023-03-30T01:00:29;13.00;71.90
77613;DHT22;66777;52.282;5.960;2023-03-30T01:03:00;13.00;71.90
77613;DHT22;66777;52.282;5.960;2023-03-30T01:05:28;13.00;71.60
77613;DHT22;66777;52.282;5.960;2023-03-30T01:07:55;13.10;71.50
77613;DHT22;66777;52.282;5.960;2023-03-30T01:10:25;13.10;71.50
77613;DHT22;66777;52.282;5.960;2023-03-30T01:12:51;13.10;71.40
77613;DHT22;66777;52.282;5.960;2023-03-30T01:15:17;13.20;70.80
77613;DHT22;66777;52.282;5.960;2023-03-30T01:17:59;13.20;71.10
77613;DHT22;66777;52.282;5.960;2023-03-30T01:44:42;12.80;71.10
77613;DHT22;66777;52.282;5.960;2023-03-30T01:47:22;12.80;71.30
77613;DHT22;66777;52.282;5.960;2023-03-30T01:50:02;12.70;71.60
77613;DHT22;66777;52.282;5.960;2023-03-30T01:55:31;12.80;71.30
77613;DHT22;66777;52.282;5.960;2023-03-30T02:00:32;12.90;70.80
77613;DHT22;66777;52.282;5.960;2023-03-30T02:03:11;12.80;70.90
77613;DHT22;66777;52.282;5.960;2023-03-30T02:05:40;12.80;70.80
77613;DHT22;66777;52.282;5.960;2023-03-30T02:08:10;12.80;70.30
77613;DHT22;66777;52.282;5.960;2023-03-30T02:10:39;12.70;71.00
77613;DHT22;66777;52.282;5.960;2023-03-30T02:13:07;12.60;71.40
77613;DHT22;66777;52.282;5.960;2023-03-30T02:15:46;12.50;71.70
77613;DHT22;66777;52.282;5.960;2023-03-30T02:18:13;12.50;71.60
77613;DHT22;66777;52.282;5.960;2023-03-30T02:20:40;12.40;72.50
77613;DHT22;66777;52.282;5.960;2023-03-30T02:23:07;12.20;73.40
77613;DHT22;66777;52.282;5.960;2023-03-30T02:25:33;12.10;73.70
77613;DHT22;66777;52.282;5.960;2023-03-30T02:28:01;12.00;74.00
77613;DHT22;66777;52.282;5.960;2023-03-30T02:30:33;12.00;74.30
77613;DHT22;66777;52.282;5.960;2023-03-30T02:33:00;11.90;75.00
77613;DHT22;66777;52.282;5.960;2023-03-30T02:38:54;11.90;75.00
77613;DHT22;66777;52.282;5.960;2023-03-30T02:44:41;11.70;75.60
77613;DHT22;66777;52.282;5.960;2023-03-30T02:50:02;11.50;75.90
77613;DHT22;66777;52.282;5.960;2023-03-30T02:55:13;11.30;76.70
77613;DHT22;66777;52.282;5.960;2023-03-30T03:00:42;11.10;77.60
77613;DHT22;66777;52.282;5.960;2023-03-30T03:03:33;11.10;77.90
77613;DHT22;66777;52.282;5.960;2023-03-30T03:06:00;11.20;77.30
77613;DHT22;66777;52.282;5.960;2023-03-30T03:08:30;11.30;77.00
77613;DHT22;66777;52.282;5.960;2023-03-30T03:10:57;11.50;76.80
77613;DHT22;66777;52.282;5.960;2023-03-30T03:13:23;11.50;76.40
77613;DHT22;66777;52.282;5.960;2023-03-30T03:15:49;11.80;75.40
77613;DHT22;66777;52.282;5.960;2023-03-30T03:18:17;11.90;75.00
77613;DHT22;66777;52.282;5.960;2023-03-30T03:20:43;12.00;74.50
77613;DHT22;66777;52.282;5.960;2023-03-30T03:23:09;12.20;74.30
77613;DHT22;66777;52.282;5.960;2023-03-30T03:25:35;12.20;73.50
77613;DHT22;66777;52.282;5.960;2023-03-30T03:28:01;12.40;73.40
77613;DHT22;66777;52.282;5.960;2023-03-30T03:30:27;12.50;72.90
77613;DHT22;66777;52.282;5.960;2023-03-30T03:32:53;12.60;72.50
77613;DHT22;66777;52.282;5.960;2023-03-30T03:35:18;12.70;72.40
77613;DHT22;66777;52.282;5.960;2023-03-30T03:37:44;12.70;72.90
77613;DHT22;66777;52.282;5.960;2023-03-30T03:40:11;12.50;74.80
77613;DHT22;66777;52.282;5.960;2023-03-30T03:42:37;12.30;75.70
77613;DHT22;66777;52.282;5.960;2023-03-30T03:45:03;12.20;75.10
77613;DHT22;66777;52.282;5.960;2023-03-30T03:47:31;12.30;75.00
77613;DHT22;66777;52.282;5.960;2023-03-30T03:49:59;12.30;75.30
77613;DHT22;66777;52.282;5.960;2023-03-30T03:52:28;12.30;75.60
77613;DHT22;66777;52.282;5.960;2023-03-30T03:54:56;12.30;75.60
77613;DHT22;66777;52.282;5.960;2023-03-30T03:57:22;12.40;75.40
77613;DHT22;66777;52.282;5.960;2023-03-30T03:59:50;12.50;75.30
77613;DHT22;66777;52.282;5.960;2023-03-30T04:02:18;12.50;75.00
77613;DHT22;66777;52.282;5.960;2023-03-30T04:04:44;12.70;74.80
77613;DHT22;66777;52.282;5.960;2023-03-30T04:07:11;12.80;74.50
77613;DHT22;66777;52.282;5.960;2023-03-30T04:09:36;12.80;74.60
77613;DHT22;66777;52.282;5.960;2023-03-30T04:12:02;12.70;74.80
77613;DHT22;66777;52.282;5.960;2023-03-30T04:14:29;12.60;75.30
77613;DHT22;66777;52.282;5.960;2023-03-30T04:16:54;12.60;75.40
77613;DHT22;66777;52.282;5.960;2023-03-30T04:19:25;12.80;75.20
77613;DHT22;66777;52.282;5.960;2023-03-30T04:21:52;12.90;74.90
77613;DHT22;66777;52.282;5.960;2023-03-30T04:24:20;12.80;74.80
77613;DHT22;66777;52.282;5.960;2023-03-30T04:26:48;12.90;74.80
77613;DHT22;66777;52.282;5.960;2023-03-30T04:29:14;13.00;74.70
77613;DHT22;66777;52.282;5.960;2023-03-30T04:31:45;13.00;75.00
77613;DHT22;66777;52.282;5.960;2023-03-30T04:34:12;13.00;74.80
77613;DHT22;66777;52.282;5.960;2023-03-30T04:36:38;13.00;74.90
77613;DHT22;66777;52.282;5.960;2023-03-30T04:39:10;13.00;75.20
77613;DHT22;66777;52.282;5.960;2023-03-30T04:41:36;13.00;75.20
77613;DHT22;66777;52.282;5.960;2023-03-30T04:44:04;13.00;75.30
77613;DHT22;66777;52.282;5.960;2023-03-30T04:46:30;12.90;75.70
77613;DHT22;66777;52.282;5.960;2023-03-30T04:48:57;12.90;75.70
77613;DHT22;66777;52.282;5.960;2023-03-30T04:51:23;13.10;75.50
77613;DHT22;66777;52.282;5.960;2023-03-30T04:53:49;13.10;75.50
77613;DHT22;66777;52.282;5.960;2023-03-30T04:56:16;13.10;75.60
77613;DHT22;66777;52.282;5.960;2023-03-30T04:58:42;13.10;75.30
77613;DHT22;66777;52.282;5.960;2023-03-30T05:01:09;13.10;75.50
77613;DHT22;66777;52.282;5.960;2023-03-30T05:03:35;13.10;75.60
77613;DHT22;66777;52.282;5.960;2023-03-30T05:06:01;13.10;75.90
77613;DHT22;66777;52.282;5.960;2023-03-30T05:08:28;13.00;76.20
77613;DHT22;66777;52.282;5.960;2023-03-30T05:10:54;13.00;76.60
77613;DHT22;66777;52.282;5.960;2023-03-30T05:13:23;12.90;76.50
77613;DHT22;66777;52.282;5.960;2023-03-30T05:15:56;12.90;76.70
77613;DHT22;66777;52.282;5.960;2023-03-30T05:18:21;12.80;77.00
77613;DHT22;66777;52.282;5.960;2023-03-30T05:20:48;12.70;77.40
77613;DHT22;66777;52.282;5.960;2023-03-30T05:23:14;12.70;77.70
77613;DHT22;66777;52.282;5.960;2023-03-30T05:25:44;12.70;77.60
77613;DHT22;66777;52.282;5.960;2023-03-30T05:28:11;12.60;78.10
77613;DHT22;66777;52.282;5.960;2023-03-30T05:30:37;12.50;78.40
77613;DHT22;66777;52.282;5.960;2023-03-30T05:33:03;12.50;78.50
77613;DHT22;66777;52.282;5.960;2023-03-30T05:35:30;12.40;78.80
77613;DHT22;66777;52.282;5.960;2023-03-30T05:37:55;12.40;78.90
77613;DHT22;66777;52.282;5.960;2023-03-30T05:40:21;12.40;79.00
77613;DHT22;66777;52.282;5.960;2023-03-30T05:42:47;12.30;79.10
77613;DHT22;66777;52.282;5.960;2023-03-30T05:45:13;12.20;79.40
77613;DHT22;66777;52.282;5.960;2023-03-30T05:47:39;12.30;79.40
77613;DHT22;66777;52.282;5.960;2023-03-30T05:50:06;12.20;79.60
77613;DHT22;66777;52.282;5.960;2023-03-30T05:52:32;12.20;79.70
77613;DHT22;66777;52.282;5.960;2023-03-30T05:54:58;12.20;79.60
77613;DHT22;66777;52.282;5.960;2023-03-30T05:57:24;12.20;79.50
77613;DHT22;66777;52.282;5.960;2023-03-30T05:59:49;12.20;79.40
77613;DHT22;66777;52.282;5.960;2023-03-30T06:02:15;12.20;79.40
77613;DHT22;66777;52.282;5.960;2023-03-30T06:04:42;12.10;79.70
77613;DHT22;66777;52.282;5.960;2023-03-30T06:07:08;12.00;79.80
77613;DHT22;66777;52.282;5.960;2023-03-30T06:09:34;12.00;80.00
77613;DHT22;66777;52.282;5.960;2023-03-30T06:12:00;12.00;80.20
77613;DHT22;66777;52.282;5.960;2023-03-30T06:14:27;12.00;80.10
77613;DHT22;66777;52.282;5.960;2023-03-30T06:16:53;12.00;80.30
77613;DHT22;66777;52.282;5.960;2023-03-30T06:19:19;12.00;80.20
77613;DHT22;66777;52.282;5.960;2023-03-30T06:21:45;12.10;80.00
77613;DHT22;66777;52.282;5.960;2023-03-30T06:24:12;12.10;79.80
77613;DHT22;66777;52.282;5.960;2023-03-30T06:26:38;12.10;79.70
77613;DHT22;66777;52.282;5.960;2023-03-30T06:29:03;12.20;79.50
77613;DHT22;66777;52.282;5.960;2023-03-30T06:31:29;12.20;79.10
77613;DHT22;66777;52.282;5.960;2023-03-30T06:33:55;12.30;78.90
77613;DHT22;66777;52.282;5.960;2023-03-30T06:36:21;12.30;78.70
77613;DHT22;66777;52.282;5.960;2023-03-30T06:38:46;12.40;78.60
77613;DHT22;66777;52.282;5.960;2023-03-30T06:41:13;12.40;78.10
77613;DHT22;66777;52.282;5.960;2023-03-30T06:43:40;12.40;78.40
77613;DHT22;66777;52.282;5.960;2023-03-30T06:46:07;12.30;78.60
77613;DHT22;66777;52.282;5.960;2023-03-30T06:48:33;12.20;78.90
77613;DHT22;66777;52.282;5.960;2023-03-30T06:50:59;12.30;78.10
77613;DHT22;66777;52.282;5.960;2023-03-30T06:53:26;12.50;77.90
77613;DHT22;66777;52.282;5.960;2023-03-30T06:55:57;12.50;77.90
77613;DHT22;66777;52.282;5.960;2023-03-30T06:58:24;12.50;77.80
77613;DHT22;66777;52.282;5.960;2023-03-30T07:00:51;12.50;77.50
77613;DHT22;66777;52.282;5.960;2023-03-30T07:03:18;12.50;77.60
77613;DHT22;66777;52.282;5.960;2023-03-30T07:05:49;12.70;77.00
77613;DHT22;66777;52.282;5.960;2023-03-30T07:08:15;12.90;76.40
77613;DHT22;66777;52.282;5.960;2023-03-30T07:10:41;13.00;76.20
77613;DHT22;66777;52.282;5.960;2023-03-30T07:13:08;13.10;76.10
77613;DHT22;66777;52.282;5.960;2023-03-30T07:15:34;13.00;75.00
77613;DHT22;66777;52.282;5.960;2023-03-30T07:18:00;13.10;74.80
77613;DHT22;66777;52.282;5.960;2023-03-30T07:20:26;13.10;74.80
77613;DHT22;66777;52.282;5.960;2023-03-30T07:22:52;13.30;74.80
77613;DHT22;66777;52.282;5.960;2023-03-30T07:25:18;13.40;74.20
77613;DHT22;66777;52.282;5.960;2023-03-30T07:27:44;13.50;73.90
77613;DHT22;66777;52.282;5.960;2023-03-30T07:30:10;13.50;73.80
77613;DHT22;66777;52.282;5.960;2023-03-30T07:32:36;13.50;73.50
77613;DHT22;66777;52.282;5.960;2023-03-30T07:35:02;13.60;73.30
77613;DHT22;66777;52.282;5.960;2023-03-30T07:37:29;13.70;72.50
77613;DHT22;66777;52.282;5.960;2023-03-30T07:39:55;13.80;72.30
77613;DHT22;66777;52.282;5.960;2023-03-30T07:42:22;13.70;72.20
77613;DHT22;66777;52.282;5.960;2023-03-30T07:44:48;13.60;72.20
77613;DHT22;66777;52.282;5.960;2023-03-30T07:47:14;13.50;72.70
77613;DHT22;66777;52.282;5.960;2023-03-30T07:49:40;13.40;72.20
77613;DHT22;66777;52.282;5.960;2023-03-30T07:52:07;13.30;72.30
77613;DHT22;66777;52.282;5.960;2023-03-30T07:54:34;13.30;73.10
77613;DHT22;66777;52.282;5.960;2023-03-30T07:57:00;13.30;72.90
77613;DHT22;66777;52.282;5.960;2023-03-30T07:59:26;13.30;72.30
77613;DHT22;66777;52.282;5.960;2023-03-30T08:01:52;13.60;71.80
77613;DHT22;66777;52.282;5.960;2023-03-30T08:04:19;13.70;70.70
77613;DHT22;66777;52.282;5.960;2023-03-30T08:06:46;13.70;70.50
77613;DHT22;66777;52.282;5.960;2023-03-30T08:09:12;13.80;70.80
77613;DHT22;66777;52.282;5.960;2023-03-30T08:11:38;14.00;70.40
77613;DHT22;66777;52.282;5.960;2023-03-30T08:14:04;14.10;69.70
77613;DHT22;66777;52.282;5.960;2023-03-30T08:16:30;14.20;69.20
77613;DHT22;66777;52.282;5.960;2023-03-30T08:18:56;14.30;68.50
77613;DHT22;66777;52.282;5.960;2023-03-30T08:21:22;14.50;67.70
77613;DHT22;66777;52.282;5.960;2023-03-30T08:23:53;14.70;67.10
77613;DHT22;66777;52.282;5.960;2023-03-30T08:26:24;14.70;66.60
77613;DHT22;66777;52.282;5.960;2023-03-30T08:28:51;14.70;67.00
77613;DHT22;66777;52.282;5.960;2023-03-30T08:31:17;14.50;66.40
77613;DHT22;66777;52.282;5.960;2023-03-30T08:33:47;14.30;67.70
77613;DHT22;66777;52.282;5.960;2023-03-30T08:36:13;14.20;68.30
77613;DHT22;66777;52.282;5.960;2023-03-30T08:38:39;14.00;68.30
77613;DHT22;66777;52.282;5.960;2023-03-30T08:41:40;14.00;68.80
77613;DHT22;66777;52.282;5.960;2023-03-30T08:46:46;13.90;68.10
77613;DHT22;66777;52.282;5.960;2023-03-30T08:49:17;14.20;67.60
77613;DHT22;66777;52.282;5.960;2023-03-30T08:51:47;14.40;67.50
77613;DHT22;66777;52.282;5.960;2023-03-30T08:54:18;14.40;68.10
77613;DHT22;66777;52.282;5.960;2023-03-30T08:59:41;13.90;68.50
77613;DHT22;66777;52.282;5.960;2023-03-30T09:10:26;14.40;68.30
77613;DHT22;66777;52.282;5.960;2023-03-30T09:12:58;14.70;67.40
77613;DHT22;66777;52.282;5.960;2023-03-30T09:15:28;14.70;67.10
77613;DHT22;66777;52.282;5.960;2023-03-30T09:20:29;14.40;67.60
77613;DHT22;66777;52.282;5.960;2023-03-30T09:22:58;14.30;67.90
77613;DHT22;66777;52.282;5.960;2023-03-30T09:25:32;14.10;68.50
77613;DHT22;66777;52.282;5.960;2023-03-30T09:28:21;14.20;68.30
77613;DHT22;66777;52.282;5.960;2023-03-30T09:33:40;14.60;67.50
77613;DHT22;66777;52.282;5.960;2023-03-30T09:36:11;14.60;67.90
77613;DHT22;66777;52.282;5.960;2023-03-30T09:38:39;14.90;67.30
77613;DHT22;66777;52.282;5.960;2023-03-30T09:44:12;15.20;65.60
77613;DHT22;66777;52.282;5.960;2023-03-30T09:46:41;15.30;65.10
77613;DHT22;66777;52.282;5.960;2023-03-30T09:49:14;15.40;65.40
77613;DHT22;66777;52.282;5.960;2023-03-30T09:52:20;15.80;64.50
77613;DHT22;66777;52.282;5.960;2023-03-30T09:54:46;16.30;63.20
77613;DHT22;66777;52.282;5.960;2023-03-30T09:57:30;16.50;62.20
77613;DHT22;66777;52.282;5.960;2023-03-30T09:59:58;16.90;60.40
77613;DHT22;66777;52.282;5.960;2023-03-30T10:02:27;16.40;60.90
77613;DHT22;66777;52.282;5.960;2023-03-30T10:04:57;16.40;61.10
77613;DHT22;66777;52.282;5.960;2023-03-30T10:07:36;16.40;62.00
77613;DHT22;66777;52.282;5.960;2023-03-30T10:12:48;16.50;61.20
77613;DHT22;66777;52.282;5.960;2023-03-30T10:15:17;16.20;61.00
77613;DHT22;66777;52.282;5.960;2023-03-30T10:17:46;15.90;61.70
77613;DHT22;66777;52.282;5.960;2023-03-30T10:20:36;15.70;62.10
77613;DHT22;66777;52.282;5.960;2023-03-30T10:23:13;15.60;62.60
77613;DHT22;66777;52.282;5.960;2023-03-30T10:25:41;15.60;62.80
77613;DHT22;66777;52.282;5.960;2023-03-30T10:28:19;16.10;61.70
77613;DHT22;66777;52.282;5.960;2023-03-30T10:30:57;16.10;60.30
77613;DHT22;66777;52.282;5.960;2023-03-30T10:33:24;15.80;61.60
77613;DHT22;66777;52.282;5.960;2023-03-30T10:35:52;16.00;61.90
77613;DHT22;66777;52.282;5.960;2023-03-30T10:38:22;16.30;61.70
77613;DHT22;66777;52.282;5.960;2023-03-30T10:40:52;16.10;60.80
77613;DHT22;66777;52.282;5.960;2023-03-30T10:43:29;15.80;61.30
77613;DHT22;66777;52.282;5.960;2023-03-30T10:45:58;16.40;59.60
77613;DHT22;66777;52.282;5.960;2023-03-30T10:54:02;16.90;58.20
77613;DHT22;66777;52.282;5.960;2023-03-30T10:56:48;18.30;55.40
77613;DHT22;66777;52.282;5.960;2023-03-30T10:59:39;18.00;55.80
77613;DHT22;66777;52.282;5.960;2023-03-30T11:02:28;17.20;56.70
77613;DHT22;66777;52.282;5.960;2023-03-30T11:05:16;16.30;57.40
77613;DHT22;66777;52.282;5.960;2023-03-30T11:10:35;15.60;60.30
77613;DHT22;66777;52.282;5.960;2023-03-30T11:16:15;15.70;59.70
77613;DHT22;66777;52.282;5.960;2023-03-30T11:22:13;15.00;61.60
77613;DHT22;66777;52.282;5.960;2023-03-30T11:24:30;15.50;61.80
77613;DHT22;66777;52.282;5.960;2023-03-30T11:27:13;16.70;59.10
77613;DHT22;66777;52.282;5.960;2023-03-30T11:32:45;16.20;59.90
77613;DHT22;66777;52.282;5.960;2023-03-30T11:35:29;15.80;61.00
77613;DHT22;66777;52.282;5.960;2023-03-30T11:38:19;15.90;61.30
77613;DHT22;66777;52.282;5.960;2023-03-30T11:40:49;15.60;61.30
77613;DHT22;66777;52.282;5.960;2023-03-30T11:43:18;15.40;62.80
77613;DHT22;66777;52.282;5.960;2023-03-30T11:54:25;15.80;65.00
77613;DHT22;66777;52.282;5.960;2023-03-30T12:10:35;15.90;62.10
77613;DHT22;66777;52.282;5.960;2023-03-30T12:13:01;15.30;63.00
77613;DHT22;66777;52.282;5.960;2023-03-30T12:19:29;15.10;62.80
77613;DHT22;66777;52.282;5.960;2023-03-30T12:21:35;15.10;62.90
77613;DHT22;66777;52.282;5.960;2023-03-30T12:24:45;15.40;62.40
77613;DHT22;66777;52.282;5.960;2023-03-30T12:27:13;16.30;61.30
77613;DHT22;66777;52.282;5.960;2023-03-30T12:32:25;16.40;60.90
77613;DHT22;66777;52.282;5.960;2023-03-30T12:34:52;17.00;58.70
77613;DHT22;66777;52.282;5.960;2023-03-30T12:37:30;16.70;59.50
77613;DHT22;66777;52.282;5.960;2023-03-30T12:40:18;16.80;59.30
77613;DHT22;66777;52.282;5.960;2023-03-30T12:43:12;16.80;59.70
77613;DHT22;66777;52.282;5.960;2023-03-30T12:45:58;18.00;57.30
77613;DHT22;66777;52.282;5.960;2023-03-30T12:49:14;20.30;53.60
77613;DHT22;66777;52.282;5.960;2023-03-30T12:52:05;22.20;51.90
77613;DHT22;66777;52.282;5.960;2023-03-30T13:05:58;24.40;45.20
77613;DHT22;66777;52.282;5.960;2023-03-30T13:08:39;22.80;48.40
77613;DHT22;66777;52.282;5.960;2023-03-30T13:11:11;21.10;48.70
77613;DHT22;66777;52.282;5.960;2023-03-30T13:24:50;22.70;46.10
77613;DHT22;66777;52.282;5.960;2023-03-30T13:27:20;26.00;43.70
77613;DHT22;66777;52.282;5.960;2023-03-30T13:33:11;24.00;44.60
77613;DHT22;66777;52.282;5.960;2023-03-30T13:39:02;21.90;47.70
77613;DHT22;66777;52.282;5.960;2023-03-30T13:49:27;19.50;51.90
77613;DHT22;66777;52.282;5.960;2023-03-30T13:52:03;19.80;53.20
77613;DHT22;66777;52.282;5.960;2023-03-30T13:54:31;21.10;50.00
77613;DHT22;66777;52.282;5.960;2023-03-30T13:57:20;23.90;45.30
77613;DHT22;66777;52.282;5.960;2023-03-30T14:00:07;23.30;45.20
77613;DHT22;66777;52.282;5.960;2023-03-30T14:02:38;21.10;48.30
77613;DHT22;66777;52.282;5.960;2023-03-30T14:05:18;23.10;46.70
77613;DHT22;66777;52.282;5.960;2023-03-30T14:07:45;23.10;46.40
77613;DHT22;66777;52.282;5.960;2023-03-30T14:10:17;24.10;46.10
77613;DHT22;66777;52.282;5.960;2023-03-30T14:12:50;23.40;46.20
77613;DHT22;66777;52.282;5.960;2023-03-30T14:15:36;22.50;47.80
77613;DHT22;66777;52.282;5.960;2023-03-30T14:18:03;22.10;48.40
77613;DHT22;66777;52.282;5.960;2023-03-30T14:20:46;22.50;48.70
77613;DHT22;66777;52.282;5.960;2023-03-30T14:25:58;22.60;49.00
77613;DHT22;66777;52.282;5.960;2023-03-30T14:28:27;23.70;49.00
77613;DHT22;66777;52.282;5.960;2023-03-30T14:30:55;22.50;48.90
77613;DHT22;66777;52.282;5.960;2023-03-30T14:33:22;20.80;51.50
77613;DHT22;66777;52.282;5.960;2023-03-30T14:35:56;19.20;53.90
77613;DHT22;66777;52.282;5.960;2023-03-30T14:38:30;20.30;53.40
77613;DHT22;66777;52.282;5.960;2023-03-30T14:41:06;19.30;53.90
77613;DHT22;66777;52.282;5.960;2023-03-30T14:43:33;18.30;55.80
77613;DHT22;66777;52.282;5.960;2023-03-30T14:46:04;17.80;56.70
77613;DHT22;66777;52.282;5.960;2023-03-30T14:48:42;17.20;57.80
77613;DHT22;66777;52.282;5.960;2023-03-30T14:51:22;17.20;58.60
77613;DHT22;66777;52.282;5.960;2023-03-30T14:53:49;17.80;56.80
77613;DHT22;66777;52.282;5.960;2023-03-30T14:56:17;19.80;54.00
77613;DHT22;66777;52.282;5.960;2023-03-30T14:58:43;20.10;52.50
77613;DHT22;66777;52.282;5.960;2023-03-30T15:01:13;22.20;49.70
77613;DHT22;66777;52.282;5.960;2023-03-30T15:03:41;23.20;49.50
77613;DHT22;66777;52.282;5.960;2023-03-30T15:06:10;23.50;47.70
77613;DHT22;66777;52.282;5.960;2023-03-30T15:08:39;21.60;49.50
77613;DHT22;66777;52.282;5.960;2023-03-30T15:11:11;19.90;52.30
77613;DHT22;66777;52.282;5.960;2023-03-30T15:13:56;18.60;54.10
77613;DHT22;66777;52.282;5.960;2023-03-30T15:16:28;17.50;56.30
77613;DHT22;66777;52.282;5.960;2023-03-30T15:21:50;16.80;57.70
77613;DHT22;66777;52.282;5.960;2023-03-30T15:24:22;16.40;58.40
77613;DHT22;66777;52.282;5.960;2023-03-30T15:26:50;16.20;59.10
77613;DHT22;66777;52.282;5.960;2023-03-30T15:29:19;16.40;59.20
77613;DHT22;66777;52.282;5.960;2023-03-30T15:32:40;16.60;59.00
77613;DHT22;66777;52.282;5.960;2023-03-30T15:35:05;16.60;59.00
77613;DHT22;66777;52.282;5.960;2023-03-30T15:37:34;16.30;59.70
77613;DHT22;66777;52.282;5.960;2023-03-30T15:40:00;16.00;60.10
77613;DHT22;66777;52.282;5.960;2023-03-30T15:42:31;15.80;60.50
77613;DHT22;66777;52.282;5.960;2023-03-30T15:45:03;15.60;61.20
77613;DHT22;66777;52.282;5.960;2023-03-30T15:47:32;15.60;61.70
77613;DHT22;66777;52.282;5.960;2023-03-30T15:49:59;15.60;61.70
77613;DHT22;66777;52.282;5.960;2023-03-30T15:52:34;15.60;61.60
77613;DHT22;66777;52.282;5.960;2023-03-30T15:55:27;15.60;61.60
77613;DHT22;66777;52.282;5.960;2023-03-30T15:57:55;15.40;62.00
77613;DHT22;66777;52.282;5.960;2023-03-30T16:00:24;15.40;62.30
77613;DHT22;66777;52.282;5.960;2023-03-30T16:02:56;15.30;62.20
77613;DHT22;66777;52.282;5.960;2023-03-30T16:05:25;15.20;62.00
77613;DHT22;66777;52.282;5.960;2023-03-30T16:07:52;15.20;62.70
77613;DHT22;66777;52.282;5.960;2023-03-30T16:10:26;15.20;62.10
77613;DHT22;66777;52.282;5.960;2023-03-30T16:12:55;15.20;62.20
77613;DHT22;66777;52.282;5.960;2023-03-30T16:15:23;15.20;62.60
77613;DHT22;66777;52.282;5.960;2023-03-30T16:17:49;15.00;62.50
77613;DHT22;66777;52.282;5.960;2023-03-30T16:20:20;15.00;62.80
77613;DHT22;66777;52.282;5.960;2023-03-30T16:22:47;14.90;62.90
77613;DHT22;66777;52.282;5.960;2023-03-30T16:25:14;15.00;63.10
77613;DHT22;66777;52.282;5.960;2023-03-30T16:27:40;15.30;62.60
77613;DHT22;66777;52.282;5.960;2023-03-30T16:30:33;15.30;61.90
77613;DHT22;66777;52.282;5.960;2023-03-30T16:33:01;15.20;62.40
77613;DHT22;66777;52.282;5.960;2023-03-30T16:35:26;15.00;62.80
77613;DHT22;66777;52.282;5.960;2023-03-30T16:37:52;15.00;62.70
77613;DHT22;66777;52.282;5.960;2023-03-30T16:40:40;14.90;63.10
77613;DHT22;66777;52.282;5.960;2023-03-30T16:43:07;14.90;63.20
77613;DHT22;66777;52.282;5.960;2023-03-30T16:45:33;15.00;63.20
77613;DHT22;66777;52.282;5.960;2023-03-30T16:47:59;14.80;63.20
77613;DHT22;66777;52.282;5.960;2023-03-30T16:50:37;14.70;63.30
77613;DHT22;66777;52.282;5.960;2023-03-30T16:53:05;14.70;63.50
77613;DHT22;66777;52.282;5.960;2023-03-30T16:55:33;14.70;63.60
77613;DHT22;66777;52.282;5.960;2023-03-30T16:57:58;14.60;64.00
77613;DHT22;66777;52.282;5.960;2023-03-30T17:00:28;14.40;64.20
77613;DHT22;66777;52.282;5.960;2023-03-30T17:02:54;14.30;64.40
77613;DHT22;66777;52.282;5.960;2023-03-30T17:05:20;14.20;64.50
77613;DHT22;66777;52.282;5.960;2023-03-30T17:07:46;14.10;64.80
77613;DHT22;66777;52.282;5.960;2023-03-30T17:10:28;14.00;65.00
77613;DHT22;66777;52.282;5.960;2023-03-30T17:12:55;14.10;65.00
77613;DHT22;66777;52.282;5.960;2023-03-30T17:15:22;14.00;65.30
77613;DHT22;66777;52.282;5.960;2023-03-30T17:17:49;14.00;65.30
77613;DHT22;66777;52.282;5.960;2023-03-30T17:22:44;13.90;65.40
77613;DHT22;66777;52.282;5.960;2023-03-30T17:25:11;13.90;65.70
77613;DHT22;66777;52.282;5.960;2023-03-30T17:27:37;13.80;65.90
77613;DHT22;66777;52.282;5.960;2023-03-30T17:30:17;13.70;66.10
77613;DHT22;66777;52.282;5.960;2023-03-30T17:32:43;13.60;66.40
77613;DHT22;66777;52.282;5.960;2023-03-30T17:35:10;13.50;66.90
77613;DHT22;66777;52.282;5.960;2023-03-30T17:37:37;13.50;67.30
77613;DHT22;66777;52.282;5.960;2023-03-30T17:40:19;13.40;67.40
77613;DHT22;66777;52.282;5.960;2023-03-30T17:42:46;13.30;68.20
77613;DHT22;66777;52.282;5.960;2023-03-30T17:45:14;13.20;68.40
77613;DHT22;66777;52.282;5.960;2023-03-30T17:47:42;13.10;68.40
77613;DHT22;66777;52.282;5.960;2023-03-30T17:50:26;13.10;68.30
77613;DHT22;66777;52.282;5.960;2023-03-30T17:52:53;13.10;68.30
77613;DHT22;66777;52.282;5.960;2023-03-30T17:55:20;13.00;68.60
77613;DHT22;66777;52.282;5.960;2023-03-30T17:57:47;12.90;69.00
77613;DHT22;66777;52.282;5.960;2023-03-30T18:00:23;12.80;69.20
77613;DHT22;66777;52.282;5.960;2023-03-30T18:02:51;12.80;69.50
77613;DHT22;66777;52.282;5.960;2023-03-30T18:05:17;12.80;69.60
77613;DHT22;66777;52.282;5.960;2023-03-30T18:07:44;12.70;69.90
77613;DHT22;66777;52.282;5.960;2023-03-30T18:10:16;12.70;70.10
77613;DHT22;66777;52.282;5.960;2023-03-30T18:12:42;12.70;70.10
77613;DHT22;66777;52.282;5.960;2023-03-30T18:15:08;12.60;70.30
77613;DHT22;66777;52.282;5.960;2023-03-30T18:17:35;12.50;70.50
77613;DHT22;66777;52.282;5.960;2023-03-30T18:20:31;12.50;70.60
77613;DHT22;66777;52.282;5.960;2023-03-30T18:22:55;12.50;70.90
77613;DHT22;66777;52.282;5.960;2023-03-30T18:25:21;12.40;70.90
77613;DHT22;66777;52.282;5.960;2023-03-30T18:27:48;12.30;71.20
77613;DHT22;66777;52.282;5.960;2023-03-30T18:30:27;12.30;71.30
77613;DHT22;66777;52.282;5.960;2023-03-30T18:32:55;12.30;71.40